Time;durP1;ratioP1;P1;durP2;ratioP2;P2;SDS_P1;SDS_P2;PMS_P1;PMS_P2;Temp;Humidity;BMP_temperature;BMP_pressure;BME280_temperature;BME280_humidity;BME280_pressure;Samples;Min_cycle;Max_cycle;Signal;HPM_P1;HPM_P2
2023/10/25 00:02:08;;;;;;;3.90;3.40;;;;;;;9.83;100.00;97088.31;5072790;28;20231;-83
2023/10/25 00:04:35;;;;;;;4.27;3.40;;;;;;;9.80;100.00;97088.56;5072788;28;20214;-84
2023/10/25 00:07:01;;;;;;;4.77;3.70;;;;;;;9.77;100.00;97089.66;5081618;28;20212;-84
2023/10/25 00:09:29;;;;;;;5.77;4.33;;;;;;;9.76;100.00;97076.59;5079127;28;20207;-84
2023/10/25 00:11:56;;;;;;;5.43;4.27;;;;;;;9.79;100.00;97081.63;5074224;28;20239;-84
2023/10/25 00:14:22;;;;;;;4.03;3.63;;;;;;;9.77;100.00;97078.25;5075893;28;20243;-84
2023/10/25 00:16:49;;;;;;;5.17;3.83;;;;;;;9.75;100.00;97074.91;5097375;28;20191;-83
2023/10/25 00:19:16;;;;;;;5.83;4.37;;;;;;;9.73;100.00;97067.13;5097417;28;20200;-83
2023/10/25 00:21:42;;;;;;;4.70;3.73;;;;;;;9.70;100.00;97066.53;5096914;28;20232;-82
2023/10/25 00:24:09;;;;;;;5.20;4.37;;;;;;;9.65;100.00;97053.72;5096733;28;20265;-83
2023/10/25 00:26:37;;;;;;;5.20;4.50;;;;;;;9.65;100.00;97058.16;5091453;28;20204;-83
2023/10/25 00:29:04;;;;;;;5.37;4.30;;;;;;;9.65;100.00;97047.59;5080825;28;20304;-84
2023/10/25 00:31:30;;;;;;;5.80;4.37;;;;;;;9.66;100.00;97050.13;5080383;28;20245;-82
2023/10/25 00:33:58;;;;;;;5.40;4.60;;;;;;;9.71;100.00;97060.28;5082718;28;20216;-83
2023/10/25 00:36:24;;;;;;;6.80;4.90;;;;;;;9.72;100.00;97062.81;5090068;28;20265;-83
2023/10/25 00:38:51;;;;;;;8.27;5.20;;;;;;;9.75;100.00;97057.31;5090978;28;20698;-83
2023/10/25 00:41:17;;;;;;;6.90;5.13;;;;;;;9.78;100.00;97056.22;5089791;28;20233;-83
2023/10/25 00:43:45;;;;;;;7.17;5.57;;;;;;;9.80;100.00;97047.19;5089781;28;20271;-85
2023/10/25 00:46:13;;;;;;;6.70;5.50;;;;;;;9.76;100.00;97044.94;5090442;28;20220;-86
2023/10/25 00:48:42;;;;;;;8.17;5.60;;;;;;;9.73;100.00;97050.47;5090505;28;20210;-85
2023/10/25 00:51:10;;;;;;;8.00;5.50;;;;;;;9.70;100.00;97046.28;5090693;28;20235;-85
2023/10/25 00:53:40;;;;;;;5.67;4.70;;;;;;;9.69;100.00;97043.75;5088479;28;20205;-85
2023/10/25 00:56:10;;;;;;;6.57;4.87;;;;;;;9.64;100.00;97035.38;5069524;28;20647;-86
2023/10/25 00:58:37;;;;;;;7.27;4.90;;;;;;;9.54;100.00;97060.88;5086803;28;20209;-85
2023/10/25 01:01:06;;;;;;;7.37;5.27;;;;;;;9.52;100.00;97055.72;5087018;28;20561;-84
2023/10/25 01:03:32;;;;;;;8.40;5.47;;;;;;;9.57;100.00;97052.69;5085152;28;20220;-85
2023/10/25 01:06:02;;;;;;;8.33;6.23;;;;;;;9.62;100.00;97048.69;5086028;28;20214;-86
2023/10/25 01:08:29;;;;;;;9.43;6.73;;;;;;;9.62;100.00;97042.59;5086424;28;20210;-85
2023/10/25 01:10:56;;;;;;;11.27;7.43;;;;;;;9.62;100.00;97042.59;5085997;28;20234;-85
2023/10/25 01:13:23;;;;;;;9.63;7.30;;;;;;;9.62;100.00;97047.88;5081406;28;20235;-83
2023/10/25 01:15:49;;;;;;;7.30;5.90;;;;;;;9.64;100.00;97040.66;5077238;28;20226;-83
2023/10/25 01:18:17;;;;;;;9.70;6.13;;;;;;;9.61;100.00;97038.28;5086482;28;20212;-84
2023/10/25 01:20:44;;;;;;;8.63;6.40;;;;;;;9.65;100.00;97042.34;5095919;28;20195;-83
2023/10/25 01:23:12;;;;;;;8.80;6.83;;;;;;;9.65;100.00;97039.69;5099145;28;20191;-83
2023/10/25 01:25:40;;;;;;;9.33;5.97;;;;;;;9.63;100.00;97033.72;5100182;28;20193;-83
2023/10/25 01:28:07;;;;;;;10.23;6.50;;;;;;;9.61;100.00;97035.66;5100213;28;20188;-84
2023/10/25 01:30:34;;;;;;;8.23;5.87;;;;;;;9.62;100.00;97042.59;5091314;28;20262;-84
2023/10/25 01:33:01;;;;;;;9.60;6.83;;;;;;;9.55;100.00;97052.00;5088454;28;20226;-86
2023/10/25 01:35:27;;;;;;;9.47;6.73;;;;;;;9.51;100.00;97055.81;5089121;28;20211;-85
2023/10/25 01:37:54;;;;;;;8.77;6.50;;;;;;;9.47;100.00;97059.66;5089950;28;20302;-86
2023/10/25 01:40:22;;;;;;;10.23;6.83;;;;;;;9.51;100.00;97050.56;5089616;28;20205;-85
2023/10/25 01:42:51;;;;;;;13.73;7.27;;;;;;;9.49;100.00;97052.50;5088199;28;20232;-84
2023/10/25 01:45:18;;;;;;;11.20;7.67;;;;;;;9.53;100.00;97041.56;5088466;28;20208;-85
2023/10/25 01:47:44;;;;;;;9.90;7.10;;;;;;;9.52;100.00;97044.31;5087314;28;20624;-84
2023/10/25 01:50:11;;;;;;;15.17;8.30;;;;;;;9.50;100.00;97043.59;5087261;28;20220;-84
2023/10/25 01:52:37;;;;;;;10.77;7.20;;;;;;;9.47;100.00;97049.13;5086120;28;20236;-84
2023/10/25 01:55:04;;;;;;;9.20;7.07;;;;;;;9.41;100.00;97058.38;5086575;28;20211;-84
2023/10/25 01:57:32;;;;;;;9.70;6.77;;;;;;;9.37;100.00;97037.66;5086907;28;20224;-83
2023/10/25 01:59:59;;;;;;;8.50;6.53;;;;;;;9.31;100.00;97048.72;5086296;28;20207;-84
2023/10/25 02:02:25;;;;;;;9.03;6.97;;;;;;;9.21;100.00;97051.25;5085239;28;20226;-84
2023/10/25 02:04:52;;;;;;;11.00;7.40;;;;;;;9.18;100.00;97048.03;5085883;28;20212;-84
2023/10/25 02:07:18;;;;;;;10.90;7.57;;;;;;;9.18;100.00;97042.75;5085464;28;20219;-86
2023/10/25 02:09:45;;;;;;;12.73;8.00;;;;;;;9.19;100.00;97036.53;5085591;28;20218;-86
2023/10/25 02:12:11;;;;;;;11.23;7.53;;;;;;;9.17;100.00;97038.47;5084342;28;20233;-86
2023/10/25 02:14:39;;;;;;;11.10;7.40;;;;;;;9.21;100.00;97038.06;5084908;28;20286;-86
2023/10/25 02:17:06;;;;;;;12.23;7.90;;;;;;;9.22;100.00;97030.97;5085264;28;20237;-84
2023/10/25 02:19:32;;;;;;;11.80;8.03;;;;;;;9.19;100.00;97031.25;5085584;28;20210;-85
2023/10/25 02:21:59;;;;;;;11.13;7.40;;;;;;;9.18;100.00;97037.50;5084443;28;20230;-85
2023/10/25 02:24:26;;;;;;;11.70;7.10;;;;;;;9.15;100.00;97032.44;5084663;28;20207;-84
2023/10/25 02:26:53;;;;;;;12.70;7.73;;;;;;;9.16;100.00;97019.16;5084603;28;20252;-84
2023/10/25 02:29:19;;;;;;;12.23;7.60;;;;;;;9.21;100.00;97024.03;5085548;28;20214;-85
2023/10/25 02:31:47;;;;;;;12.67;7.60;;;;;;;9.21;100.00;97010.88;5082566;28;20249;-84
2023/10/25 02:34:14;;;;;;;9.97;7.23;;;;;;;9.21;100.00;97014.34;5079900;28;20225;-85
2023/10/25 02:36:40;;;;;;;10.97;7.33;;;;;;;9.20;100.00;97012.69;5080744;28;20206;-83
2023/10/25 02:39:07;;;;;;;11.40;7.47;;;;;;;9.24;100.00;97010.63;5080470;28;20236;-83
2023/10/25 02:41:33;;;;;;;14.97;8.03;;;;;;;9.28;100.00;97009.41;5080386;28;20234;-84
2023/10/25 02:44:01;;;;;;;11.07;7.50;;;;;;;9.26;100.00;97008.69;5078940;28;20675;-84
2023/10/25 02:46:27;;;;;;;12.47;8.07;;;;;;;9.28;100.00;97002.34;5079260;28;20221;-85
2023/10/25 02:48:55;;;;;;;11.40;7.70;;;;;;;9.26;100.00;97004.28;5079165;28;20200;-84
2023/10/25 02:51:21;;;;;;;13.33;7.63;;;;;;;9.23;100.00;97008.97;5079392;28;20230;-84
2023/10/25 02:53:48;;;;;;;11.70;7.97;;;;;;;9.21;100.00;96998.53;5079178;28;20238;-84
2023/10/25 02:56:14;;;;;;;10.97;7.27;;;;;;;9.21;100.00;96995.03;5079080;28;20217;-85
2023/10/25 02:58:41;;;;;;;9.70;7.13;;;;;;;9.19;100.00;96995.16;5078812;28;20771;-85
2023/10/25 03:01:07;;;;;;;14.43;8.90;;;;;;;9.18;100.00;96990.03;5078720;28;20232;-85
2023/10/25 03:03:35;;;;;;;13.53;8.93;;;;;;;9.17;100.00;96991.00;5078714;28;20206;-85
2023/10/25 03:06:03;;;;;;;14.73;9.50;;;;;;;9.17;100.00;96983.91;5078540;28;20206;-84
2023/10/25 03:08:29;;;;;;;11.97;8.47;;;;;;;9.15;100.00;96982.38;5078685;28;20719;-84
2023/10/25 03:10:56;;;;;;;12.70;8.63;;;;;;;9.08;100.00;96978.56;5078339;28;20602;-85
2023/10/25 03:13:23;;;;;;;13.30;8.10;;;;;;;9.03;100.00;96970.19;5078419;28;20230;-85
2023/10/25 03:15:49;;;;;;;11.87;7.93;;;;;;;8.92;100.00;96978.97;5077998;28;20211;-84
2023/10/25 03:18:16;;;;;;;11.43;7.90;;;;;;;8.82;100.00;96977.22;5078691;28;20210;-81
2023/10/25 03:20:42;;;;;;;12.83;8.37;;;;;;;8.79;100.00;96961.63;5082500;28;20580;-85
2023/10/25 03:23:12;;;;;;;14.30;8.93;;;;;;;8.83;100.00;96960.44;5085805;28;20208;-82
2023/10/25 03:25:39;;;;;;;14.47;8.93;;;;;;;8.89;100.00;96965.22;5087202;28;20240;-85
2023/10/25 03:28:05;;;;;;;14.83;9.00;;;;;;;8.92;100.00;96962.31;5089884;28;20213;-85
2023/10/25 03:30:32;;;;;;;14.83;8.93;;;;;;;8.94;100.00;96949.88;5086076;28;20218;-85
2023/10/25 03:32:58;;;;;;;15.87;8.70;;;;;;;8.91;100.00;96955.38;5085463;28;20696;-85
2023/10/25 03:35:26;;;;;;;15.23;8.40;;;;;;;8.94;100.00;96949.88;5086303;28;20206;-86
2023/10/25 03:37:53;;;;;;;13.80;8.30;;;;;;;8.90;100.00;96958.97;5088581;28;20210;-85
2023/10/25 03:40:21;;;;;;;11.00;7.10;;;;;;;8.84;100.00;96960.31;5090495;28;20274;-85
2023/10/25 03:42:47;;;;;;;11.73;6.73;;;;;;;8.72;100.00;96956.03;5087666;28;20728;-85
2023/10/25 03:45:14;;;;;;;9.80;6.73;;;;;;;8.55;100.00;96956.53;5084197;28;20213;-85
2023/10/25 03:47:40;;;;;;;10.37;6.50;;;;;;;8.42;100.00;96957.63;5082805;28;20668;-84
2023/10/25 03:50:08;;;;;;;10.40;6.83;;;;;;;8.39;100.00;96957.88;5085167;28;20220;-83
2023/10/25 03:52:36;;;;;;;11.53;7.03;;;;;;;8.40;100.00;96960.38;5085840;28;20229;-84
2023/10/25 03:55:02;;;;;;;11.37;7.03;;;;;;;8.40;100.00;96965.63;5086506;28;20239;-82
2023/10/25 03:57:30;;;;;;;11.83;7.47;;;;;;;8.39;100.00;96957.88;5086532;28;20214;-83
2023/10/25 03:59:57;;;;;;;9.93;6.73;;;;;;;8.36;100.00;96947.59;5084896;28;20213;-84
2023/10/25 04:02:24;;;;;;;10.87;6.93;;;;;;;8.36;100.00;96942.31;5082271;28;20233;-84
2023/10/25 04:04:50;;;;;;;9.40;6.43;;;;;;;8.37;100.00;96938.72;5083068;28;20233;-84
2023/10/25 04:07:17;;;;;;;13.10;7.27;;;;;;;8.40;100.00;96941.13;5083900;28;20224;-84
2023/10/25 04:09:43;;;;;;;14.80;8.67;;;;;;;8.46;100.00;96938.00;5082849;28;20216;-84
2023/10/25 04:12:12;;;;;;;13.73;9.07;;;;;;;8.52;100.00;96942.78;5083002;28;20236;-84
2023/10/25 04:14:44;;;;;;;15.63;9.47;;;;;;;8.49;100.00;96933.34;5083320;28;20695;-84
2023/10/25 04:17:10;;;;;;;16.50;9.50;;;;;;;8.50;100.00;96934.19;5084045;28;20193;-83
2023/10/25 04:19:37;;;;;;;15.93;9.50;;;;;;;8.48;100.00;96941.34;5084656;28;20221;-86
2023/10/25 04:22:04;;;;;;;18.03;9.57;;;;;;;8.49;100.00;96941.22;5085267;28;20229;-85
2023/10/25 04:24:31;;;;;;;17.23;10.83;;;;;;;8.56;100.00;96938.97;5083710;28;20218;-85
2023/10/25 04:26:57;;;;;;;17.40;10.90;;;;;;;8.61;100.00;96939.41;5086274;28;20212;-85
2023/10/25 04:29:24;;;;;;;20.27;11.13;;;;;;;8.64;100.00;96933.91;5084796;28;20672;-85
2023/10/25 04:31:52;;;;;;;18.87;10.63;;;;;;;8.64;100.00;96926.00;5083241;28;20749;-86
2023/10/25 04:34:18;;;;;;;17.30;9.93;;;;;;;8.58;100.00;96927.31;5082890;28;20228;-85
2023/10/25 04:36:45;;;;;;;18.23;10.17;;;;;;;8.54;100.00;96919.78;5083921;28;20212;-85
2023/10/25 04:39:11;;;;;;;17.17;9.40;;;;;;;8.49;100.00;96914.06;5085676;28;20209;-85
2023/10/25 04:41:39;;;;;;;18.07;9.20;;;;;;;8.44;100.00;96913.59;5083447;28;20229;-84
2023/10/25 04:44:06;;;;;;;15.60;8.60;;;;;;;8.37;100.00;96915.88;5081345;28;20213;-84
2023/10/25 04:46:32;;;;;;;16.07;8.00;;;;;;;8.32;100.00;96912.78;5082406;28;20260;-84
2023/10/25 04:49:00;;;;;;;14.53;7.90;;;;;;;8.27;100.00;96906.22;5081168;28;20224;-85
2023/10/25 04:51:27;;;;;;;12.23;7.67;;;;;;;8.27;100.00;96893.06;5082209;28;20233;-84
2023/10/25 04:53:53;;;;;;;11.13;6.87;;;;;;;8.24;100.00;96901.16;5076938;28;20246;-84
2023/10/25 04:56:22;;;;;;;11.40;7.27;;;;;;;8.20;100.00;96886.59;5076508;28;20531;-84
2023/10/25 04:58:49;;;;;;;13.70;7.83;;;;;;;8.13;100.00;96888.00;5076961;28;20211;-84
2023/10/25 05:01:16;;;;;;;11.23;7.53;;;;;;;8.11;100.00;96887.28;5076059;28;20236;-84
2023/10/25 05:03:44;;;;;;;10.83;6.93;;;;;;;8.07;100.00;96888.47;5092417;28;20207;-85
2023/10/25 05:06:13;;;;;;;11.43;7.27;;;;;;;8.06;100.00;96886.81;5100482;28;20190;-84
2023/10/25 05:08:40;;;;;;;12.90;7.37;;;;;;;8.02;100.00;96888.03;5100567;28;20220;-84
2023/10/25 05:11:08;;;;;;;10.87;6.50;;;;;;;7.91;100.00;96880.94;5096289;28;20309;-84
2023/10/25 05:13:35;;;;;;;10.90;6.57;;;;;;;7.88;100.00;96872.47;5079779;28;20233;-83
2023/10/25 05:16:03;;;;;;;10.23;6.00;;;;;;;7.84;100.00;96881.56;5078107;28;20225;-83
2023/10/25 05:18:30;;;;;;;8.60;5.67;;;;;;;7.83;100.00;96877.28;5081682;28;20244;-85
2023/10/25 05:20:59;;;;;;;10.63;6.50;;;;;;;7.84;100.00;96876.31;5077234;28;20576;-84
2023/10/25 05:23:31;;;;;;;8.57;6.23;;;;;;;7.78;100.00;96871.53;5075541;28;20216;-85
2023/10/25 05:25:59;;;;;;;10.27;7.13;;;;;;;7.79;100.00;96874.00;5077357;28;20235;-82
2023/10/25 05:28:26;;;;;;;6.93;4.83;;;;;;;7.73;100.00;96865.78;5077238;28;20213;-84
2023/10/25 05:30:55;;;;;;;10.73;5.67;;;;;;;7.66;100.00;96867.22;5077226;28;20230;-83
2023/10/25 05:33:25;;;;;;;11.43;6.27;;;;;;;7.61;100.00;96870.22;5077637;28;20240;-84
2023/10/25 05:35:52;;;;;;;9.80;6.17;;;;;;;7.56;100.00;96866.25;5075281;28;20214;-86
2023/10/25 05:38:19;;;;;;;10.77;5.80;;;;;;;7.53;100.00;96867.31;5074490;28;20666;-83
2023/10/25 05:40:49;;;;;;;10.40;6.70;;;;;;;7.53;100.00;96855.97;5075171;28;20766;-84
2023/10/25 05:43:16;;;;;;;9.07;5.97;;;;;;;7.54;100.00;96852.38;5074375;28;20561;-86
2023/10/25 05:45:44;;;;;;;10.80;6.30;;;;;;;7.53;100.00;96855.97;5096526;28;20313;-85
2023/10/25 05:48:15;;;;;;;10.57;6.03;;;;;;;7.50;100.00;96850.94;5098029;28;20221;-85
2023/10/25 05:50:44;;;;;;;9.57;5.93;;;;;;;7.50;100.00;96848.31;5099592;28;20218;-82
2023/10/25 05:53:12;;;;;;;11.47;6.70;;;;;;;7.48;100.00;96844.97;5097892;28;20250;-83
2023/10/25 05:55:41;;;;;;;11.87;6.33;;;;;;;7.55;100.00;96844.41;5099775;28;20192;-84
2023/10/25 05:58:10;;;;;;;12.50;7.17;;;;;;;7.59;100.00;96845.00;5094866;28;20200;-84
2023/10/25 06:00:37;;;;;;;14.23;7.13;;;;;;;7.66;100.00;96841.75;5090196;28;20214;-83
2023/10/25 06:03:04;;;;;;;10.77;7.67;;;;;;;7.72;100.00;96841.25;5089637;28;20453;-85
2023/10/25 06:05:34;;;;;;;13.87;7.87;;;;;;;7.73;100.00;96842.13;5085886;28;20239;-84
2023/10/25 06:08:01;;;;;;;13.03;8.13;;;;;;;7.76;100.00;96833.97;5081648;28;20210;-87
2023/10/25 06:10:28;;;;;;;14.00;7.50;;;;;;;7.77;100.00;96838.31;5082919;28;20267;-85
2023/10/25 06:12:55;;;;;;;12.40;7.50;;;;;;;7.77;100.00;96838.31;5079619;28;20235;-84
2023/10/25 06:15:23;;;;;;;14.33;7.20;;;;;;;7.72;100.00;96838.63;5059902;28;20597;-83
2023/10/25 06:17:51;;;;;;;11.47;7.13;;;;;;;7.69;100.00;96835.41;5077332;28;20208;-82
2023/10/25 06:20:19;;;;;;;14.67;7.30;;;;;;;7.70;100.00;96837.06;5077249;28;20203;-83
2023/10/25 06:22:46;;;;;;;13.17;7.30;;;;;;;7.68;100.00;96831.97;5079398;28;20264;-87
2023/10/25 06:25:12;;;;;;;9.60;6.63;;;;;;;7.67;100.00;96827.66;5087250;28;20294;-85
2023/10/25 06:27:39;;;;;;;10.60;6.93;;;;;;;7.74;100.00;96825.38;5087524;28;20201;-85
2023/10/25 06:30:07;;;;;;;11.10;6.40;;;;;;;7.80;100.00;96815.22;5086657;28;20293;-86
2023/10/25 06:32:35;;;;;;;12.07;7.20;;;;;;;7.94;100.00;96808.84;5085715;28;20221;-84
2023/10/25 06:35:03;;;;;;;14.23;8.03;;;;;;;8.11;100.00;96808.34;5086360;28;20237;-86
2023/10/25 06:37:31;;;;;;;16.13;8.50;;;;;;;8.16;100.00;96814.06;5085529;28;20215;-83
2023/10/25 06:39:58;;;;;;;12.90;7.80;;;;;;;8.13;100.00;96815.16;5078562;28;20217;-85
2023/10/25 06:42:25;;;;;;;12.40;7.43;;;;;;;8.13;100.00;96809.03;5078224;28;20240;-84
2023/10/25 06:44:52;;;;;;;13.63;7.77;;;;;;;8.07;100.00;96804.28;5078630;28;20208;-83
2023/10/25 06:47:19;;;;;;;15.63;10.05;;;;;;;8.04;100.00;96805.38;5081611;28;20489;-85
2023/10/25 06:49:48;;;;;;;12.43;8.10;;;;;;;7.98;100.00;96805.03;5080953;28;20228;-83
2023/10/25 06:52:15;;;;;;;11.77;7.60;;;;;;;7.99;100.00;96804.91;5074930;28;20241;-80
2023/10/25 06:54:42;;;;;;;14.87;8.80;;;;;;;8.04;100.00;96796.66;5073172;28;20233;-88
2023/10/25 06:57:11;;;;;;;15.90;7.97;;;;;;;8.09;100.00;96797.94;5076415;28;20209;-88
2023/10/25 06:59:38;;;;;;;14.03;8.13;;;;;;;8.15;100.00;96791.38;5074696;28;20294;-88
2023/10/25 07:02:21;;;;;;;15.33;8.80;;;;;;;8.30;100.00;96790.13;5073064;28;20228;-88
2023/10/25 07:04:56;;;;;;;16.47;9.37;;;;;;;8.46;100.00;96782.66;5055343;28;20205;-88
2023/10/25 07:07:27;;;;;;;18.40;9.33;;;;;;;8.70;100.00;96783.28;5073287;28;20214;-88
2023/10/25 07:09:54;;;;;;;18.30;9.57;;;;;;;8.92;100.00;96775.25;5073605;28;20604;-87
2023/10/25 07:12:21;;;;;;;18.17;10.53;;;;;;;9.06;100.00;96774.94;5075828;28;20584;-86
2023/10/25 07:14:47;;;;;;;19.07;10.57;;;;;;;9.14;100.00;96773.34;5074221;28;20224;-87
2023/10/25 07:17:14;;;;;;;19.27;10.43;;;;;;;9.19;100.00;96768.47;5074258;28;20221;-87
2023/10/25 07:19:43;;;;;;;18.57;9.40;;;;;;;9.26;100.00;96751.19;5079390;28;20226;-87
2023/10/25 07:22:11;;;;;;;15.73;8.87;;;;;;;9.32;100.00;96755.94;5075926;28;20261;-88
2023/10/25 07:24:41;;;;;;;15.30;8.47;;;;;;;9.38;100.00;96749.31;5074606;28;20248;-87
2023/10/25 07:27:07;;;;;;;15.13;8.80;;;;;;;9.44;100.00;96748.78;5075220;28;20210;-86
2023/10/25 07:29:36;;;;;;;15.67;9.27;;;;;;;9.48;100.00;96737.81;5074971;28;20212;-87
2023/10/25 07:32:03;;;;;;;15.77;9.47;;;;;;;9.55;100.00;96714.41;5074159;28;20235;-86
2023/10/25 07:34:29;;;;;;;14.00;8.10;;;;;;;9.62;100.00;96723.44;5073943;28;20651;-87
2023/10/25 07:36:56;;;;;;;13.57;8.60;;;;;;;9.65;100.00;96731.91;5074818;28;20219;-88
2023/10/25 07:39:24;;;;;;;13.80;9.13;;;;;;;9.70;100.00;96740.25;5074389;28;20199;-86
2023/10/25 07:41:51;;;;;;;15.37;8.90;;;;;;;9.84;100.00;96736.44;5056457;28;20234;-87
2023/10/25 07:44:17;;;;;;;14.60;9.27;;;;;;;9.95;100.00;96728.38;5074361;28;20200;-87
2023/10/25 07:46:44;;;;;;;14.47;8.93;;;;;;;10.02;100.00;96734.75;5074404;28;20207;-87
2023/10/25 07:49:10;;;;;;;14.10;8.43;;;;;;;10.07;100.00;96724.66;5074330;28;20311;-87
2023/10/25 07:51:37;;;;;;;16.23;8.90;;;;;;;10.09;100.00;96731.47;5073968;28;20230;-89
2023/10/25 07:54:04;;;;;;;14.13;8.80;;;;;;;10.06;100.00;96728.28;5073261;28;20249;-86
2023/10/25 07:56:31;;;;;;;12.03;7.80;;;;;;;9.99;100.00;96724.50;5073859;28;20207;-87
2023/10/25 07:58:58;;;;;;;11.23;7.27;;;;;;;9.94;100.00;96721.44;5073971;28;20211;-87
2023/10/25 08:01:25;;;;;;;11.70;7.37;;;;;;;9.86;100.00;96718.66;5072819;28;20224;-87
2023/10/25 08:03:51;;;;;;;11.33;7.17;;;;;;;9.84;100.00;96716.13;5083643;28;20218;-87
2023/10/25 08:06:18;;;;;;;9.50;7.07;;;;;;;9.85;100.00;96715.16;5073080;28;20215;-88
2023/10/25 08:08:44;;;;;;;11.27;7.00;;;;;;;9.82;100.00;96711.97;5072770;28;20218;-88
2023/10/25 08:11:11;;;;;;;10.23;6.90;;;;;;;9.80;100.00;96708.63;5073269;28;20227;-88
2023/10/25 08:13:40;;;;;;;11.90;7.00;;;;;;;9.93;100.00;96698.66;5072512;28;20204;-88
2023/10/25 08:16:07;;;;;;;11.80;7.37;;;;;;;10.04;100.00;96701.22;5072649;28;20658;-88
2023/10/25 08:18:34;;;;;;;10.70;7.50;;;;;;;10.07;100.00;96703.56;5073211;28;20218;-86
2023/10/25 08:21:00;;;;;;;11.13;7.47;;;;;;;10.15;100.00;96703.72;5076657;28;20243;-89
2023/10/25 08:23:27;;;;;;;11.27;7.83;;;;;;;10.28;100.00;96704.28;5076822;28;20590;-88
2023/10/25 08:26:00;;;;;;;10.60;7.53;;;;;;;10.42;100.00;96693.28;5076461;28;20216;-88
2023/10/25 08:28:26;;;;;;;12.40;8.23;;;;;;;10.57;100.00;96695.38;5077274;28;20211;-88
2023/10/25 08:30:54;;;;;;;14.67;8.40;;;;;;;10.72;100.00;96695.75;5077442;28;20238;-88
2023/10/25 08:33:21;;;;;;;12.83;8.67;;;;;;;10.77;100.00;96685.59;5080315;28;20207;-89
2023/10/25 08:35:47;;;;;;;11.43;7.97;;;;;;;10.83;100.00;96685.03;5100224;28;20236;-88
2023/10/25 08:38:14;;;;;;;10.43;7.57;;;;;;;10.87;100.00;96686.41;5100393;28;20227;-86
2023/10/25 08:40:41;;;;;;;11.07;7.93;;;;;;;10.96;100.00;96669.69;5099623;28;20244;-87
2023/10/25 08:43:08;;;;;;;10.07;7.40;;;;;;;11.00;100.00;96671.09;5095844;28;20208;-88
2023/10/25 08:45:35;;;;;;;10.00;7.63;;;;;;;11.04;100.00;96672.44;5075891;28;20206;-88
2023/10/25 08:48:03;;;;;;;10.30;7.23;;;;;;;11.16;100.00;96671.28;5076111;28;20216;-88
2023/10/25 08:50:31;;;;;;;11.13;7.50;;;;;;;11.18;100.00;96661.44;5075849;28;20650;-89
2023/10/25 08:52:58;;;;;;;11.20;7.27;;;;;;;11.27;100.00;96668.47;5080620;28;20206;-88
2023/10/25 08:55:25;;;;;;;9.77;7.40;;;;;;;11.25;100.00;96678.38;5100362;28;20279;-87
2023/10/25 08:57:56;;;;;;;7.80;6.33;;;;;;;11.24;100.00;96671.41;5100181;28;20261;-87
2023/10/25 09:00:23;;;;;;;7.90;5.97;;;;;;;11.21;100.00;96677.00;5100355;28;20198;-87
2023/10/25 09:02:50;;;;;;;7.73;5.60;;;;;;;11.16;100.00;96661.56;5087548;28;20216;-87
2023/10/25 09:05:18;;;;;;;8.47;6.23;;;;;;;11.11;100.00;96658.50;5087077;28;20207;-88
2023/10/25 09:07:45;;;;;;;6.03;5.20;;;;;;;11.10;100.00;96658.66;5075891;28;20218;-88
2023/10/25 09:10:13;;;;;;;6.63;5.13;;;;;;;11.17;100.00;96655.28;5075852;28;20671;-88
2023/10/25 09:12:39;;;;;;;7.13;5.53;;;;;;;11.21;100.00;96663.75;5075609;28;20223;-86
2023/10/25 09:15:07;;;;;;;6.43;5.10;;;;;;;11.24;100.00;96658.16;5075732;28;20286;-87
2023/10/25 09:17:34;;;;;;;6.60;5.50;;;;;;;11.22;100.00;96660.13;5075826;28;20266;-88
2023/10/25 09:20:01;;;;;;;7.27;5.90;;;;;;;11.25;100.00;96654.56;5076026;28;20214;-87
2023/10/25 09:22:30;;;;;;;7.10;5.50;;;;;;;11.22;100.00;96654.84;5075234;28;20228;-86
2023/10/25 09:24:59;;;;;;;7.23;5.37;;;;;;;11.21;100.00;96650.53;5075282;28;20749;-87
2023/10/25 09:27:27;;;;;;;7.00;5.17;;;;;;;11.21;100.00;96650.53;5075471;28;20204;-86
2023/10/25 09:29:54;;;;;;;8.37;5.60;;;;;;;11.16;100.00;96642.22;5076104;28;20217;-86
2023/10/25 09:32:22;;;;;;;7.13;5.73;;;;;;;11.15;100.00;96641.41;5074866;28;20235;-87
2023/10/25 09:34:50;;;;;;;6.80;5.27;;;;;;;11.18;100.00;96635.00;5076236;28;20234;-87
2023/10/25 09:37:16;;;;;;;8.30;6.00;;;;;;;11.16;100.00;96636.94;5076847;28;20214;-86
2023/10/25 09:39:44;;;;;;;7.93;5.50;;;;;;;11.18;100.00;96637.63;5083006;28;20275;-88
2023/10/25 09:42:12;;;;;;;7.00;5.50;;;;;;;11.18;100.00;96637.63;5084743;28;20231;-86
2023/10/25 09:44:45;;;;;;;7.20;5.77;;;;;;;11.23;100.00;96635.34;5086049;28;20244;-86
2023/10/25 09:47:12;;;;;;;7.33;5.80;;;;;;;11.22;100.00;96623.97;5086745;28;20197;-87
2023/10/25 09:49:43;;;;;;;6.80;5.77;;;;;;;11.21;100.00;96616.16;5088366;28;20237;-88
2023/10/25 09:52:16;;;;;;;8.90;5.83;;;;;;;11.24;100.00;96610.56;5088136;28;20231;-89
2023/10/25 09:54:51;;;;;;;8.00;6.23;;;;;;;11.26;100.00;96608.63;5089483;28;20253;-88
2023/10/25 09:57:18;;;;;;;8.63;6.10;;;;;;;11.29;100.00;96603.88;5087169;28;20213;-87
2023/10/25 09:59:46;;;;;;;8.03;6.00;;;;;;;11.33;100.00;96605.25;5089200;28;20235;-87
2023/10/25 10:02:20;;;;;;;8.67;6.17;;;;;;;11.36;100.00;96594.38;5096080;28;20235;-88
2023/10/25 10:04:54;;;;;;;7.33;6.13;;;;;;;11.40;100.00;96585.19;5091021;28;20221;-88
2023/10/25 10:07:32;;;;;;;8.53;6.10;;;;;;;11.46;100.00;96589.03;5090778;28;20191;-87
2023/10/25 10:10:08;;;;;;;9.27;6.43;;;;;;;11.50;100.00;96582.47;5084881;28;20649;-88
2023/10/25 10:12:35;;;;;;;7.57;6.20;;;;;;;11.53;100.00;96583.00;5079259;28;20227;-87
2023/10/25 10:15:02;;;;;;;8.53;5.73;;;;;;;11.51;100.00;96582.31;5079812;28;20239;-88
2023/10/25 10:17:34;;;;;;;8.67;5.60;;;;;;;11.54;100.00;96578.53;5086089;28;20196;-87
2023/10/25 10:20:05;;;;;;;7.97;5.53;;;;;;;11.60;100.00;96564.72;5063376;28;20259;-86
2023/10/25 10:22:32;;;;;;;6.80;5.80;;;;;;;11.60;100.00;96572.66;5060888;28;20239;-87
2023/10/25 10:25:03;;;;;;;7.13;5.60;;;;;;;11.62;100.00;96553.00;5078904;28;20233;-88
2023/10/25 10:28:01;;;;;;;7.73;5.27;;;;;;;11.67;100.00;96545.47;5078656;28;20261;-88
2023/10/25 10:30:38;;;;;;;6.60;5.27;;;;;;;11.69;100.00;96542.66;5078667;28;20700;-88
2023/10/25 10:33:08;;;;;;;7.43;5.13;;;;;;;11.76;100.00;96543.72;5078503;28;20214;-90
2023/10/25 10:35:35;;;;;;;6.93;5.17;;;;;;;11.80;100.00;96543.25;5079545;28;20231;-89
2023/10/25 10:38:03;;;;;;;5.80;4.97;;;;;;;11.80;100.00;96534.50;5078734;28;20298;-89
2023/10/25 10:40:31;;;;;;;5.23;4.70;;;;;;;11.84;100.00;96527.91;5060735;28;20210;-89
2023/10/25 10:42:57;;;;;;;5.97;4.20;;;;;;;11.91;100.00;96513.91;5077993;28;20213;-88
2023/10/25 10:45:24;;;;;;;7.07;4.07;;;;;;;11.96;100.00;96513.44;5089223;28;20272;-88
2023/10/25 10:47:58;;;;;;;4.67;4.10;;;;;;;12.03;100.00;96493.31;5095359;28;20214;-86
2023/10/25 10:50:26;;;;;;;4.87;4.07;;;;;;;12.07;100.00;96490.22;5095818;28;20211;-87
2023/10/25 10:52:53;;;;;;;5.27;3.70;;;;;;;12.21;100.00;96491.44;5081628;28;20227;-89
2023/10/25 10:55:22;;;;;;;3.30;2.93;;;;;;;12.30;100.00;96482.59;5085263;28;20235;-87
2023/10/25 10:57:56;;;;;;;3.87;3.13;;;;;;;12.40;100.00;96478.03;5088954;28;20274;-89
2023/10/25 11:00:25;;;;;;;5.57;3.87;;;;;;;12.47;100.00;96474.56;5095470;28;20257;-87
2023/10/25 11:02:52;;;;;;;3.93;3.23;;;;;;;12.51;100.00;96473.28;5096002;28;20223;-85
2023/10/25 11:05:22;;;;;;;4.10;3.10;;;;;;;12.56;100.00;96464.84;5096326;28;20211;-87
2023/10/25 11:07:49;;;;;;;4.23;3.30;;;;;;;12.56;100.00;96470.13;5096148;28;20211;-86
2023/10/25 11:10:16;;;;;;;4.10;3.20;;;;;;;12.50;100.00;96455.72;5096248;28;20276;-87
2023/10/25 11:12:45;;;;;;;3.03;2.67;;;;;;;12.52;100.00;96448.44;5095664;28;20239;-88
2023/10/25 11:15:13;;;;;;;3.17;2.87;;;;;;;12.55;100.00;96453.44;5096663;28;20260;-86
2023/10/25 11:17:40;;;;;;;3.20;2.90;;;;;;;12.54;100.00;96450.94;5096856;28;20247;-87
2023/10/25 11:20:07;;;;;;;3.30;2.83;;;;;;;12.57;100.00;96434.69;5096741;28;20287;-87
2023/10/25 11:22:36;;;;;;;3.80;2.70;;;;;;;12.58;100.00;96431.91;5096127;28;20231;-87
2023/10/25 11:25:08;;;;;;;2.70;2.33;;;;;;;12.61;100.00;96428.09;5096603;28;20211;-87
2023/10/25 11:27:36;;;;;;;3.20;2.70;;;;;;;12.63;100.00;96418.16;5096707;28;20205;-88
2023/10/25 11:30:04;;;;;;;3.10;2.80;;;;;;;12.65;100.00;96411.72;5096602;28;20217;-88